sensor_id;sensor_type;location;lat;lon;timestamp;temperature;humidity
22418;DHT22;11376;50.932;4.442;2022-09-09T00:02:08;16.20;99.90
22418;DHT22;11376;50.932;4.442;2022-09-09T00:04:38;16.20;99.90
22418;DHT22;11376;50.932;4.442;2022-09-09T00:10:28;16.30;99.90
22418;DHT22;11376;50.932;4.442;2022-09-09T00:15:41;16.30;99.90
22418;DHT22;11376;50.932;4.442;2022-09-09T00:18:23;16.30;99.90
22418;DHT22;11376;50.932;4.442;2022-09-09T00:23:35;16.20;99.90
22418;DHT22;11376;50.932;4.442;2022-09-09T00:26:38;16.20;99.90
22418;DHT22;11376;50.932;4.442;2022-09-09T00:31:37;16.20;99.90
22418;DHT22;11376;50.932;4.442;2022-09-09T00:34:22;16.20;99.90
22418;DHT22;11376;50.932;4.442;2022-09-09T00:36:50;16.20;99.90
22418;DHT22;11376;50.932;4.442;2022-09-09T00:39:36;16.20;99.90
22418;DHT22;11376;50.932;4.442;2022-09-09T00:47:25;16.30;99.90
22418;DHT22;11376;50.932;4.442;2022-09-09T00:50:03;16.30;99.90
22418;DHT22;11376;50.932;4.442;2022-09-09T00:52:54;16.40;99.90
22418;DHT22;11376;50.932;4.442;2022-09-09T00:57:57;16.50;99.90
22418;DHT22;11376;50.932;4.442;2022-09-09T01:00:39;16.50;99.90
22418;DHT22;11376;50.932;4.442;2022-09-09T01:06:00;16.50;99.90
22418;DHT22;11376;50.932;4.442;2022-09-09T01:09:04;16.50;99.90
22418;DHT22;11376;50.932;4.442;2022-09-09T01:17:14;16.60;99.90
22418;DHT22;11376;50.932;4.442;2022-09-09T01:22:35;16.60;99.90
22418;DHT22;11376;50.932;4.442;2022-09-09T01:27:59;16.70;99.90
22418;DHT22;11376;50.932;4.442;2022-09-09T01:30:25;16.70;99.90
22418;DHT22;11376;50.932;4.442;2022-09-09T01:32:57;16.70;99.90
22418;DHT22;11376;50.932;4.442;2022-09-09T01:35:40;16.70;99.90
22418;DHT22;11376;50.932;4.442;2022-09-09T01:38:07;16.70;99.90
22418;DHT22;11376;50.932;4.442;2022-09-09T01:40:33;16.70;99.90
22418;DHT22;11376;50.932;4.442;2022-09-09T01:42:59;16.70;99.90
22418;DHT22;11376;50.932;4.442;2022-09-09T01:45:25;16.60;99.90
22418;DHT22;11376;50.932;4.442;2022-09-09T01:47:52;16.60;99.90
22418;DHT22;11376;50.932;4.442;2022-09-09T01:50:19;16.60;99.90
22418;DHT22;11376;50.932;4.442;2022-09-09T01:52:48;16.60;99.90
22418;DHT22;11376;50.932;4.442;2022-09-09T01:55:15;16.60;99.90
22418;DHT22;11376;50.932;4.442;2022-09-09T02:00:33;16.60;99.90
22418;DHT22;11376;50.932;4.442;2022-09-09T02:03:11;16.60;99.90
22418;DHT22;11376;50.932;4.442;2022-09-09T02:05:45;16.70;99.90
22418;DHT22;11376;50.932;4.442;2022-09-09T02:08:23;16.70;99.90
22418;DHT22;11376;50.932;4.442;2022-09-09T02:11:16;16.60;99.90
22418;DHT22;11376;50.932;4.442;2022-09-09T02:13:45;16.60;99.90
22418;DHT22;11376;50.932;4.442;2022-09-09T02:18:53;16.60;99.90
22418;DHT22;11376;50.932;4.442;2022-09-09T02:21:22;16.70;99.90
22418;DHT22;11376;50.932;4.442;2022-09-09T02:23:50;16.70;99.90
22418;DHT22;11376;50.932;4.442;2022-09-09T02:26:19;16.60;99.90
22418;DHT22;11376;50.932;4.442;2022-09-09T02:28:46;16.70;99.90
22418;DHT22;11376;50.932;4.442;2022-09-09T02:31:14;16.70;99.90
22418;DHT22;11376;50.932;4.442;2022-09-09T02:33:46;16.70;99.90
22418;DHT22;11376;50.932;4.442;2022-09-09T02:36:14;16.70;99.90
22418;DHT22;11376;50.932;4.442;2022-09-09T02:38:45;16.70;99.90
22418;DHT22;11376;50.932;4.442;2022-09-09T02:41:19;16.70;99.90
22418;DHT22;11376;50.932;4.442;2022-09-09T02:43:47;16.70;99.90
22418;DHT22;11376;50.932;4.442;2022-09-09T02:49:00;16.80;99.90
22418;DHT22;11376;50.932;4.442;2022-09-09T02:56:52;16.70;99.90
22418;DHT22;11376;50.932;4.442;2022-09-09T02:59:20;16.70;99.90
22418;DHT22;11376;50.932;4.442;2022-09-09T03:01:46;16.70;99.90
22418;DHT22;11376;50.932;4.442;2022-09-09T03:04:12;16.80;99.90
22418;DHT22;11376;50.932;4.442;2022-09-09T03:06:38;16.70;99.90
22418;DHT22;11376;50.932;4.442;2022-09-09T03:09:04;16.70;99.90
22418;DHT22;11376;50.932;4.442;2022-09-09T03:11:30;16.80;99.90
22418;DHT22;11376;50.932;4.442;2022-09-09T03:13:56;16.80;99.90
22418;DHT22;11376;50.932;4.442;2022-09-09T03:16:24;16.80;99.90
22418;DHT22;11376;50.932;4.442;2022-09-09T03:18:50;16.80;99.90
22418;DHT22;11376;50.932;4.442;2022-09-09T03:21:16;16.90;99.90
22418;DHT22;11376;50.932;4.442;2022-09-09T03:23:43;16.90;99.90
22418;DHT22;11376;50.932;4.442;2022-09-09T03:26:10;16.90;99.90
22418;DHT22;11376;50.932;4.442;2022-09-09T03:28:36;16.80;99.90
22418;DHT22;11376;50.932;4.442;2022-09-09T03:31:03;16.90;99.90
22418;DHT22;11376;50.932;4.442;2022-09-09T03:33:29;16.90;99.90
22418;DHT22;11376;50.932;4.442;2022-09-09T03:35:55;16.80;99.90
22418;DHT22;11376;50.932;4.442;2022-09-09T03:38:23;16.80;99.90
22418;DHT22;11376;50.932;4.442;2022-09-09T03:40:52;16.80;99.90
22418;DHT22;11376;50.932;4.442;2022-09-09T03:43:25;16.80;99.90
22418;DHT22;11376;50.932;4.442;2022-09-09T03:45:52;16.80;99.90
22418;DHT22;11376;50.932;4.442;2022-09-09T03:48:18;16.80;99.90
22418;DHT22;11376;50.932;4.442;2022-09-09T03:50:48;16.90;99.90
22418;DHT22;11376;50.932;4.442;2022-09-09T03:53:15;16.80;99.90
22418;DHT22;11376;50.932;4.442;2022-09-09T03:55:48;16.80;99.90
22418;DHT22;11376;50.932;4.442;2022-09-09T03:58:16;16.80;99.90
22418;DHT22;11376;50.932;4.442;2022-09-09T04:00:41;16.70;99.90
22418;DHT22;11376;50.932;4.442;2022-09-09T04:03:10;16.80;99.90
22418;DHT22;11376;50.932;4.442;2022-09-09T04:05:36;16.70;99.90
22418;DHT22;11376;50.932;4.442;2022-09-09T04:08:08;16.70;99.90
22418;DHT22;11376;50.932;4.442;2022-09-09T04:10:34;16.70;99.90
22418;DHT22;11376;50.932;4.442;2022-09-09T04:13:03;16.70;99.90
22418;DHT22;11376;50.932;4.442;2022-09-09T04:15:28;16.70;99.90
22418;DHT22;11376;50.932;4.442;2022-09-09T04:17:54;16.80;99.90
22418;DHT22;11376;50.932;4.442;2022-09-09T04:20:20;16.80;99.90
22418;DHT22;11376;50.932;4.442;2022-09-09T04:22:47;16.90;99.90
22418;DHT22;11376;50.932;4.442;2022-09-09T04:25:13;16.90;99.90
22418;DHT22;11376;50.932;4.442;2022-09-09T04:27:39;17.00;99.90
22418;DHT22;11376;50.932;4.442;2022-09-09T04:30:05;16.90;99.90
22418;DHT22;11376;50.932;4.442;2022-09-09T04:32:33;16.90;99.90
22418;DHT22;11376;50.932;4.442;2022-09-09T04:34:59;17.00;99.90
22418;DHT22;11376;50.932;4.442;2022-09-09T04:37:24;16.90;99.90
22418;DHT22;11376;50.932;4.442;2022-09-09T04:39:50;16.80;99.90
22418;DHT22;11376;50.932;4.442;2022-09-09T04:42:16;16.80;99.90
22418;DHT22;11376;50.932;4.442;2022-09-09T04:47:23;16.80;99.90
22418;DHT22;11376;50.932;4.442;2022-09-09T04:49:49;16.80;99.90
22418;DHT22;11376;50.932;4.442;2022-09-09T04:52:15;16.80;99.90
22418;DHT22;11376;50.932;4.442;2022-09-09T04:54:42;16.70;99.90
22418;DHT22;11376;50.932;4.442;2022-09-09T04:57:10;16.80;99.90
22418;DHT22;11376;50.932;4.442;2022-09-09T04:59:36;16.80;99.90
22418;DHT22;11376;50.932;4.442;2022-09-09T05:02:01;16.80;99.90
22418;DHT22;11376;50.932;4.442;2022-09-09T05:04:28;16.80;99.90
22418;DHT22;11376;50.932;4.442;2022-09-09T05:06:54;16.70;99.90
22418;DHT22;11376;50.932;4.442;2022-09-09T05:09:19;16.70;99.90
22418;DHT22;11376;50.932;4.442;2022-09-09T05:11:45;16.80;99.90
22418;DHT22;11376;50.932;4.442;2022-09-09T05:14:11;16.80;99.90
22418;DHT22;11376;50.932;4.442;2022-09-09T05:16:37;16.80;99.90
22418;DHT22;11376;50.932;4.442;2022-09-09T05:19:03;16.70;99.90
22418;DHT22;11376;50.932;4.442;2022-09-09T05:21:29;16.80;99.90
22418;DHT22;11376;50.932;4.442;2022-09-09T05:23:56;16.70;99.90
22418;DHT22;11376;50.932;4.442;2022-09-09T05:26:22;16.80;99.90
22418;DHT22;11376;50.932;4.442;2022-09-09T05:28:48;16.80;99.90
22418;DHT22;11376;50.932;4.442;2022-09-09T05:31:16;16.90;99.90
22418;DHT22;11376;50.932;4.442;2022-09-09T05:33:43;17.00;99.90
22418;DHT22;11376;50.932;4.442;2022-09-09T05:38:40;17.10;99.90
22418;DHT22;11376;50.932;4.442;2022-09-09T05:41:07;17.20;99.90
22418;DHT22;11376;50.932;4.442;2022-09-09T05:43:33;17.30;99.90
22418;DHT22;11376;50.932;4.442;2022-09-09T05:46:08;17.40;99.90
22418;DHT22;11376;50.932;4.442;2022-09-09T05:48:35;17.40;99.90
22418;DHT22;11376;50.932;4.442;2022-09-09T05:51:04;17.30;99.90
22418;DHT22;11376;50.932;4.442;2022-09-09T05:53:30;17.30;99.90
22418;DHT22;11376;50.932;4.442;2022-09-09T05:56:14;17.30;99.90
22418;DHT22;11376;50.932;4.442;2022-09-09T05:58:40;17.30;99.90
22418;DHT22;11376;50.932;4.442;2022-09-09T06:01:08;17.40;99.90
22418;DHT22;11376;50.932;4.442;2022-09-09T06:03:35;17.30;99.90
22418;DHT22;11376;50.932;4.442;2022-09-09T06:06:05;17.20;99.90
22418;DHT22;11376;50.932;4.442;2022-09-09T06:08:36;17.30;99.90
22418;DHT22;11376;50.932;4.442;2022-09-09T06:14:04;17.30;99.90
22418;DHT22;11376;50.932;4.442;2022-09-09T06:16:30;17.40;99.90
22418;DHT22;11376;50.932;4.442;2022-09-09T06:18:58;17.50;99.90
22418;DHT22;11376;50.932;4.442;2022-09-09T06:21:32;17.50;99.90
22418;DHT22;11376;50.932;4.442;2022-09-09T06:24:03;17.50;99.90
22418;DHT22;11376;50.932;4.442;2022-09-09T06:26:32;17.60;99.90
22418;DHT22;11376;50.932;4.442;2022-09-09T06:28:58;17.70;99.90
22418;DHT22;11376;50.932;4.442;2022-09-09T06:31:26;17.80;99.90
22418;DHT22;11376;50.932;4.442;2022-09-09T06:33:53;17.90;99.90
22418;DHT22;11376;50.932;4.442;2022-09-09T06:36:25;17.90;99.90
22418;DHT22;11376;50.932;4.442;2022-09-09T06:38:51;17.90;99.90
22418;DHT22;11376;50.932;4.442;2022-09-09T06:41:19;17.80;99.90
22418;DHT22;11376;50.932;4.442;2022-09-09T06:43:46;17.60;99.90
22418;DHT22;11376;50.932;4.442;2022-09-09T06:46:17;17.40;99.90
22418;DHT22;11376;50.932;4.442;2022-09-09T06:48:44;17.30;99.90
22418;DHT22;11376;50.932;4.442;2022-09-09T06:51:11;17.20;99.90
22418;DHT22;11376;50.932;4.442;2022-09-09T06:53:37;17.20;99.90
22418;DHT22;11376;50.932;4.442;2022-09-09T06:58:54;17.10;99.90
22418;DHT22;11376;50.932;4.442;2022-09-09T07:01:22;17.30;99.90
22418;DHT22;11376;50.932;4.442;2022-09-09T07:03:50;17.40;99.90
22418;DHT22;11376;50.932;4.442;2022-09-09T07:06:18;17.50;99.90
22418;DHT22;11376;50.932;4.442;2022-09-09T07:08:55;17.50;99.90
22418;DHT22;11376;50.932;4.442;2022-09-09T07:11:22;17.50;99.90
22418;DHT22;11376;50.932;4.442;2022-09-09T07:13:56;17.60;99.90
22418;DHT22;11376;50.932;4.442;2022-09-09T07:16:22;17.70;99.90
22418;DHT22;11376;50.932;4.442;2022-09-09T07:18:53;17.80;99.90
22418;DHT22;11376;50.932;4.442;2022-09-09T07:21:24;17.80;99.90
22418;DHT22;11376;50.932;4.442;2022-09-09T07:23:51;17.80;99.90
22418;DHT22;11376;50.932;4.442;2022-09-09T07:26:18;17.80;99.90
22418;DHT22;11376;50.932;4.442;2022-09-09T07:28:48;17.80;99.90
22418;DHT22;11376;50.932;4.442;2022-09-09T07:31:19;17.80;99.90
22418;DHT22;11376;50.932;4.442;2022-09-09T07:33:46;17.80;99.90
22418;DHT22;11376;50.932;4.442;2022-09-09T07:36:13;17.90;99.90
22418;DHT22;11376;50.932;4.442;2022-09-09T07:38:45;17.80;99.90
22418;DHT22;11376;50.932;4.442;2022-09-09T07:41:27;17.90;99.90
22418;DHT22;11376;50.932;4.442;2022-09-09T07:43:53;17.90;99.90
22418;DHT22;11376;50.932;4.442;2022-09-09T07:46:20;17.90;99.90
22418;DHT22;11376;50.932;4.442;2022-09-09T07:48:51;17.90;99.90
22418;DHT22;11376;50.932;4.442;2022-09-09T07:51:25;17.80;99.90
22418;DHT22;11376;50.932;4.442;2022-09-09T07:53:53;17.70;99.90
22418;DHT22;11376;50.932;4.442;2022-09-09T07:56:20;17.40;99.90
22418;DHT22;11376;50.932;4.442;2022-09-09T07:58:50;17.30;99.90
22418;DHT22;11376;50.932;4.442;2022-09-09T08:01:19;17.30;99.90
22418;DHT22;11376;50.932;4.442;2022-09-09T08:03:46;17.40;99.90
22418;DHT22;11376;50.932;4.442;2022-09-09T08:06:11;17.40;99.90
22418;DHT22;11376;50.932;4.442;2022-09-09T08:08:38;17.60;99.90
22418;DHT22;11376;50.932;4.442;2022-09-09T08:11:13;17.70;99.90
22418;DHT22;11376;50.932;4.442;2022-09-09T08:13:40;17.80;99.90
22418;DHT22;11376;50.932;4.442;2022-09-09T08:16:08;18.00;99.90
22418;DHT22;11376;50.932;4.442;2022-09-09T08:18:34;18.10;99.90
22418;DHT22;11376;50.932;4.442;2022-09-09T08:21:11;18.30;99.90
22418;DHT22;11376;50.932;4.442;2022-09-09T08:23:42;18.30;99.90
22418;DHT22;11376;50.932;4.442;2022-09-09T08:26:19;18.40;99.90
22418;DHT22;11376;50.932;4.442;2022-09-09T08:28:47;18.10;99.90
22418;DHT22;11376;50.932;4.442;2022-09-09T08:31:16;18.20;99.90
22418;DHT22;11376;50.932;4.442;2022-09-09T08:33:43;18.20;99.90
22418;DHT22;11376;50.932;4.442;2022-09-09T08:36:13;18.10;99.90
22418;DHT22;11376;50.932;4.442;2022-09-09T08:38:50;18.10;99.90
22418;DHT22;11376;50.932;4.442;2022-09-09T08:41:40;18.20;99.90
22418;DHT22;11376;50.932;4.442;2022-09-09T08:52:13;17.90;99.90
22418;DHT22;11376;50.932;4.442;2022-09-09T08:54:41;17.70;99.90
22418;DHT22;11376;50.932;4.442;2022-09-09T08:57:13;17.70;99.90
22418;DHT22;11376;50.932;4.442;2022-09-09T08:59:40;17.40;99.90
22418;DHT22;11376;50.932;4.442;2022-09-09T09:02:17;17.20;99.90
22418;DHT22;11376;50.932;4.442;2022-09-09T09:05:05;17.00;99.90
22418;DHT22;11376;50.932;4.442;2022-09-09T09:07:56;16.90;99.90
22418;DHT22;11376;50.932;4.442;2022-09-09T09:10:53;16.90;99.90
22418;DHT22;11376;50.932;4.442;2022-09-09T09:13:30;17.00;99.90
22418;DHT22;11376;50.932;4.442;2022-09-09T09:16:13;17.00;99.90
22418;DHT22;11376;50.932;4.442;2022-09-09T09:18:40;17.00;99.90
22418;DHT22;11376;50.932;4.442;2022-09-09T09:23:56;17.20;99.90
22418;DHT22;11376;50.932;4.442;2022-09-09T09:26:24;17.20;99.90
22418;DHT22;11376;50.932;4.442;2022-09-09T09:28:55;17.20;99.90
22418;DHT22;11376;50.932;4.442;2022-09-09T09:31:22;17.30;99.90
22418;DHT22;11376;50.932;4.442;2022-09-09T09:33:56;17.40;99.90
22418;DHT22;11376;50.932;4.442;2022-09-09T09:36:43;17.50;99.90
22418;DHT22;11376;50.932;4.442;2022-09-09T09:39:22;17.70;99.90
22418;DHT22;11376;50.932;4.442;2022-09-09T09:41:48;17.70;99.90
22418;DHT22;11376;50.932;4.442;2022-09-09T09:44:32;17.70;99.90
22418;DHT22;11376;50.932;4.442;2022-09-09T09:47:13;17.70;99.90
22418;DHT22;11376;50.932;4.442;2022-09-09T09:49:50;17.70;99.90
22418;DHT22;11376;50.932;4.442;2022-09-09T09:52:21;17.60;99.90
22418;DHT22;11376;50.932;4.442;2022-09-09T09:54:47;17.60;99.90
22418;DHT22;11376;50.932;4.442;2022-09-09T09:57:16;17.60;99.90
22418;DHT22;11376;50.932;4.442;2022-09-09T09:59:42;17.60;99.90
22418;DHT22;11376;50.932;4.442;2022-09-09T10:02:23;17.50;99.90
22418;DHT22;11376;50.932;4.442;2022-09-09T10:05:27;17.50;99.90
22418;DHT22;11376;50.932;4.442;2022-09-09T10:08:14;17.50;99.90
22418;DHT22;11376;50.932;4.442;2022-09-09T10:13:50;17.70;99.90
22418;DHT22;11376;50.932;4.442;2022-09-09T10:19:09;17.70;99.90
22418;DHT22;11376;50.932;4.442;2022-09-09T10:25:17;18.00;99.90
22418;DHT22;11376;50.932;4.442;2022-09-09T10:30:19;18.70;99.90
22418;DHT22;11376;50.932;4.442;2022-09-09T10:46:51;19.30;99.90
22418;DHT22;11376;50.932;4.442;2022-09-09T10:57:05;20.60;99.90
22418;DHT22;11376;50.932;4.442;2022-09-09T10:59:41;20.40;99.90
22418;DHT22;11376;50.932;4.442;2022-09-09T11:02:29;20.90;99.90
22418;DHT22;11376;50.932;4.442;2022-09-09T11:05:03;21.50;99.90
22418;DHT22;11376;50.932;4.442;2022-09-09T11:07:41;21.60;99.90
22418;DHT22;11376;50.932;4.442;2022-09-09T11:10:21;21.20;99.90
22418;DHT22;11376;50.932;4.442;2022-09-09T11:15:45;21.20;99.90
22418;DHT22;11376;50.932;4.442;2022-09-09T11:18:19;21.20;99.90
22418;DHT22;11376;50.932;4.442;2022-09-09T11:20:49;21.80;99.90
22418;DHT22;11376;50.932;4.442;2022-09-09T11:23:31;21.30;99.90
22418;DHT22;11376;50.932;4.442;2022-09-09T11:26:01;21.10;99.90
22418;DHT22;11376;50.932;4.442;2022-09-09T11:40:23;21.50;99.90
22418;DHT22;11376;50.932;4.442;2022-09-09T11:43:11;21.40;99.90
22418;DHT22;11376;50.932;4.442;2022-09-09T11:45:40;21.60;99.90
22418;DHT22;11376;50.932;4.442;2022-09-09T11:48:24;21.40;99.90
22418;DHT22;11376;50.932;4.442;2022-09-09T11:53:53;21.00;99.90
22418;DHT22;11376;50.932;4.442;2022-09-09T11:56:29;20.70;99.90
22418;DHT22;11376;50.932;4.442;2022-09-09T12:06:57;20.80;99.90
22418;DHT22;11376;50.932;4.442;2022-09-09T12:11:49;22.20;99.90
22418;DHT22;11376;50.932;4.442;2022-09-09T12:14:42;21.80;99.90
22418;DHT22;11376;50.932;4.442;2022-09-09T12:17:19;21.00;99.90
22418;DHT22;11376;50.932;4.442;2022-09-09T12:19:46;20.70;99.90
22418;DHT22;11376;50.932;4.442;2022-09-09T12:22:19;20.30;99.90
22418;DHT22;11376;50.932;4.442;2022-09-09T12:24:51;20.30;99.90
22418;DHT22;11376;50.932;4.442;2022-09-09T12:27:31;20.30;99.90
22418;DHT22;11376;50.932;4.442;2022-09-09T12:30:10;20.30;99.90
22418;DHT22;11376;50.932;4.442;2022-09-09T12:32:36;20.20;99.90
22418;DHT22;11376;50.932;4.442;2022-09-09T12:35:09;20.20;99.90
22418;DHT22;11376;50.932;4.442;2022-09-09T12:37:52;20.40;99.90
22418;DHT22;11376;50.932;4.442;2022-09-09T12:40:23;20.70;99.90
22418;DHT22;11376;50.932;4.442;2022-09-09T12:42:49;20.70;99.90
22418;DHT22;11376;50.932;4.442;2022-09-09T12:47:59;20.70;99.90
22418;DHT22;11376;50.932;4.442;2022-09-09T12:50:51;20.80;99.90
22418;DHT22;11376;50.932;4.442;2022-09-09T12:53:32;20.60;99.90
22418;DHT22;11376;50.932;4.442;2022-09-09T12:56:05;21.10;99.90
22418;DHT22;11376;50.932;4.442;2022-09-09T12:58:32;21.30;99.90
22418;DHT22;11376;50.932;4.442;2022-09-09T13:01:00;21.30;99.90
22418;DHT22;11376;50.932;4.442;2022-09-09T13:03:28;21.20;99.90
22418;DHT22;11376;50.932;4.442;2022-09-09T13:05:58;21.00;99.90
22418;DHT22;11376;50.932;4.442;2022-09-09T13:08:25;21.20;99.90
22418;DHT22;11376;50.932;4.442;2022-09-09T13:13:23;23.00;99.90
22418;DHT22;11376;50.932;4.442;2022-09-09T13:15:56;23.60;99.90
22418;DHT22;11376;50.932;4.442;2022-09-09T13:18:28;23.60;99.90
22418;DHT22;11376;50.932;4.442;2022-09-09T13:20:55;23.50;99.90
22418;DHT22;11376;50.932;4.442;2022-09-09T13:23:33;23.40;99.90
22418;DHT22;11376;50.932;4.442;2022-09-09T13:26:02;23.50;99.90
22418;DHT22;11376;50.932;4.442;2022-09-09T13:28:30;24.20;99.90
22418;DHT22;11376;50.932;4.442;2022-09-09T13:30:57;24.60;99.90
22418;DHT22;11376;50.932;4.442;2022-09-09T13:33:33;24.10;99.90
22418;DHT22;11376;50.932;4.442;2022-09-09T13:36:05;23.70;99.90
22418;DHT22;11376;50.932;4.442;2022-09-09T13:41:35;23.20;99.90
22418;DHT22;11376;50.932;4.442;2022-09-09T13:44:04;22.70;99.90
22418;DHT22;11376;50.932;4.442;2022-09-09T13:51:45;23.90;99.90
22418;DHT22;11376;50.932;4.442;2022-09-09T13:54:14;24.00;99.90
22418;DHT22;11376;50.932;4.442;2022-09-09T13:56:41;23.90;99.90
22418;DHT22;11376;50.932;4.442;2022-09-09T13:59:13;23.70;99.90
22418;DHT22;11376;50.932;4.442;2022-09-09T14:01:39;23.40;99.90
22418;DHT22;11376;50.932;4.442;2022-09-09T14:04:06;23.20;99.90
22418;DHT22;11376;50.932;4.442;2022-09-09T14:06:32;22.80;99.90
22418;DHT22;11376;50.932;4.442;2022-09-09T14:09:00;22.30;99.90
22418;DHT22;11376;50.932;4.442;2022-09-09T14:11:26;22.00;99.90
22418;DHT22;11376;50.932;4.442;2022-09-09T14:13:51;22.10;99.90
22418;DHT22;11376;50.932;4.442;2022-09-09T14:16:17;22.90;99.90
22418;DHT22;11376;50.932;4.442;2022-09-09T14:18:44;23.30;99.90
22418;DHT22;11376;50.932;4.442;2022-09-09T14:21:10;23.40;99.90
22418;DHT22;11376;50.932;4.442;2022-09-09T14:23:36;22.90;99.90
22418;DHT22;11376;50.932;4.442;2022-09-09T14:26:06;22.60;99.90
22418;DHT22;11376;50.932;4.442;2022-09-09T14:28:32;22.60;99.90
22418;DHT22;11376;50.932;4.442;2022-09-09T14:31:03;22.40;99.90
22418;DHT22;11376;50.932;4.442;2022-09-09T14:33:29;22.80;99.90
22418;DHT22;11376;50.932;4.442;2022-09-09T14:35:59;23.50;99.90
22418;DHT22;11376;50.932;4.442;2022-09-09T14:38:29;24.00;99.90
22418;DHT22;11376;50.932;4.442;2022-09-09T14:40:55;24.20;99.90
22418;DHT22;11376;50.932;4.442;2022-09-09T14:43:21;24.30;99.90
22418;DHT22;11376;50.932;4.442;2022-09-09T14:45:47;24.10;99.90
22418;DHT22;11376;50.932;4.442;2022-09-09T14:48:19;23.60;99.90
22418;DHT22;11376;50.932;4.442;2022-09-09T14:50:44;23.20;99.90
22418;DHT22;11376;50.932;4.442;2022-09-09T14:53:10;22.80;99.90
22418;DHT22;11376;50.932;4.442;2022-09-09T14:55:36;22.50;99.90
22418;DHT22;11376;50.932;4.442;2022-09-09T14:58:03;22.40;99.90
22418;DHT22;11376;50.932;4.442;2022-09-09T15:00:29;22.30;99.90
22418;DHT22;11376;50.932;4.442;2022-09-09T15:02:55;22.40;99.90
22418;DHT22;11376;50.932;4.442;2022-09-09T15:05:21;22.40;99.90
22418;DHT22;11376;50.932;4.442;2022-09-09T15:07:47;22.50;99.90
22418;DHT22;11376;50.932;4.442;2022-09-09T15:10:14;22.60;99.90
22418;DHT22;11376;50.932;4.442;2022-09-09T15:12:39;22.50;99.90
22418;DHT22;11376;50.932;4.442;2022-09-09T15:15:07;22.60;99.90
22418;DHT22;11376;50.932;4.442;2022-09-09T15:17:34;22.70;99.90
22418;DHT22;11376;50.932;4.442;2022-09-09T15:19:59;22.80;99.90
22418;DHT22;11376;50.932;4.442;2022-09-09T15:22:25;22.80;99.90
22418;DHT22;11376;50.932;4.442;2022-09-09T15:24:51;22.70;99.90
22418;DHT22;11376;50.932;4.442;2022-09-09T15:27:17;22.70;99.90
22418;DHT22;11376;50.932;4.442;2022-09-09T15:29:43;22.40;99.90
22418;DHT22;11376;50.932;4.442;2022-09-09T15:32:09;22.40;99.90
22418;DHT22;11376;50.932;4.442;2022-09-09T15:34:35;22.30;99.90
22418;DHT22;11376;50.932;4.442;2022-09-09T15:37:01;22.10;99.90
22418;DHT22;11376;50.932;4.442;2022-09-09T15:39:26;22.00;99.90
22418;DHT22;11376;50.932;4.442;2022-09-09T15:41:52;22.00;99.90
22418;DHT22;11376;50.932;4.442;2022-09-09T15:44:18;21.90;99.90
22418;DHT22;11376;50.932;4.442;2022-09-09T15:46:52;21.80;99.90
22418;DHT22;11376;50.932;4.442;2022-09-09T15:49:23;21.70;99.90
22418;DHT22;11376;50.932;4.442;2022-09-09T15:51:54;21.70;99.90
22418;DHT22;11376;50.932;4.442;2022-09-09T15:54:22;21.70;99.90
22418;DHT22;11376;50.932;4.442;2022-09-09T15:56:53;21.70;99.90
22418;DHT22;11376;50.932;4.442;2022-09-09T15:59:24;21.80;99.90
22418;DHT22;11376;50.932;4.442;2022-09-09T16:01:51;21.80;99.90
22418;DHT22;11376;50.932;4.442;2022-09-09T16:04:18;21.90;99.90
22418;DHT22;11376;50.932;4.442;2022-09-09T16:06:49;21.80;99.90
22418;DHT22;11376;50.932;4.442;2022-09-09T16:09:15;21.70;99.90
22418;DHT22;11376;50.932;4.442;2022-09-09T16:11:41;21.70;99.90
22418;DHT22;11376;50.932;4.442;2022-09-09T16:14:06;21.70;99.90
22418;DHT22;11376;50.932;4.442;2022-09-09T16:16:32;21.60;99.90
22418;DHT22;11376;50.932;4.442;2022-09-09T16:19:03;21.50;99.90
22418;DHT22;11376;50.932;4.442;2022-09-09T16:21:35;21.30;99.90
22418;DHT22;11376;50.932;4.442;2022-09-09T16:24:02;21.30;99.90
22418;DHT22;11376;50.932;4.442;2022-09-09T16:26:30;21.30;99.90
22418;DHT22;11376;50.932;4.442;2022-09-09T16:28:57;21.30;99.90
22418;DHT22;11376;50.932;4.442;2022-09-09T16:31:24;21.20;99.90
22418;DHT22;11376;50.932;4.442;2022-09-09T16:33:51;21.30;99.90
22418;DHT22;11376;50.932;4.442;2022-09-09T16:36:19;21.20;99.90
22418;DHT22;11376;50.932;4.442;2022-09-09T16:38:45;21.00;99.90
22418;DHT22;11376;50.932;4.442;2022-09-09T16:41:12;21.00;99.90
22418;DHT22;11376;50.932;4.442;2022-09-09T16:43:38;21.00;99.90
22418;DHT22;11376;50.932;4.442;2022-09-09T16:46:16;20.90;99.90
22418;DHT22;11376;50.932;4.442;2022-09-09T16:48:43;20.80;99.90
22418;DHT22;11376;50.932;4.442;2022-09-09T16:51:23;20.70;99.90
22418;DHT22;11376;50.932;4.442;2022-09-09T16:53:49;20.70;99.90
22418;DHT22;11376;50.932;4.442;2022-09-09T16:56:20;20.70;99.90
22418;DHT22;11376;50.932;4.442;2022-09-09T16:58:56;20.70;99.90
22418;DHT22;11376;50.932;4.442;2022-09-09T17:01:26;21.00;99.90
22418;DHT22;11376;50.932;4.442;2022-09-09T17:03:53;21.30;99.90
22418;DHT22;11376;50.932;4.442;2022-09-09T17:06:19;21.50;99.90
22418;DHT22;11376;50.932;4.442;2022-09-09T17:08:45;21.60;99.90
22418;DHT22;11376;50.932;4.442;2022-09-09T17:11:15;21.40;99.90
22418;DHT22;11376;50.932;4.442;2022-09-09T17:13:46;21.30;99.90
22418;DHT22;11376;50.932;4.442;2022-09-09T17:16:13;21.40;99.90
22418;DHT22;11376;50.932;4.442;2022-09-09T17:18:39;21.40;99.90
22418;DHT22;11376;50.932;4.442;2022-09-09T17:21:11;21.40;99.90
22418;DHT22;11376;50.932;4.442;2022-09-09T17:23:37;21.30;99.90
22418;DHT22;11376;50.932;4.442;2022-09-09T17:26:05;21.30;99.90
22418;DHT22;11376;50.932;4.442;2022-09-09T17:28:34;21.30;99.90
22418;DHT22;11376;50.932;4.442;2022-09-09T17:31:00;21.10;99.90
22418;DHT22;11376;50.932;4.442;2022-09-09T17:33:30;20.90;99.90
22418;DHT22;11376;50.932;4.442;2022-09-09T17:35:57;20.90;99.90
22418;DHT22;11376;50.932;4.442;2022-09-09T17:38:24;20.90;99.90
22418;DHT22;11376;50.932;4.442;2022-09-09T17:41:00;20.70;99.90
22418;DHT22;11376;50.932;4.442;2022-09-09T17:43:26;20.50;99.90
22418;DHT22;11376;50.932;4.442;2022-09-09T17:45:51;20.50;99.90
22418;DHT22;11376;50.932;4.442;2022-09-09T17:48:17;20.30;99.90
22418;DHT22;11376;50.932;4.442;2022-09-09T17:50:42;20.20;99.90
22418;DHT22;11376;50.932;4.442;2022-09-09T17:53:08;20.10;99.90
22418;DHT22;11376;50.932;4.442;2022-09-09T17:55:34;20.00;99.90
22418;DHT22;11376;50.932;4.442;2022-09-09T17:58:00;19.80;99.90
22418;DHT22;11376;50.932;4.442;2022-09-09T18:00:25;19.70;99.90
22418;DHT22;11376;50.932;4.442;2022-09-09T18:02:51;19.50;99.90
22418;DHT22;11376;50.932;4.442;2022-09-09T18:05:16;19.30;99.90
22418;DHT22;11376;50.932;4.442;2022-09-09T18:07:43;19.20;99.90
22418;DHT22;11376;50.932;4.442;2022-09-09T18:10:09;19.10;99.90
22418;DHT22;11376;50.932;4.442;2022-09-09T18:12:34;19.00;99.90